Time;durP1;ratioP1;P1;durP2;ratioP2;P2;SDS_P1;SDS_P2;PMS_P1;PMS_P2;Temp;Humidity;BMP_temperature;BMP_pressure;BME280_temperature;BME280_humidity;BME280_pressure;Samples;Min_cycle;Max_cycle;Signal;HPM_P1;HPM_P2
2021/12/16 00:02:02;;;;;;;;;33.75;30.25;;;;;11.20;72.32;102783.44;5093290;27;46154;-79
2021/12/16 00:07:58;;;;;;;;;34.75;31.00;;;;;11.24;72.21;102782.41;5089896;28;45630;-77
2021/12/16 00:10:34;;;;;;;;;33.50;30.25;;;;;11.25;72.36;102788.50;5094769;28;46351;-77
2021/12/16 00:30:25;;;;;;;;;32.25;28.50;;;;;11.23;72.28;102780.69;5014119;28;45805;-79
2021/12/16 00:35:37;;;;;;;;;28.00;25.50;;;;;11.23;72.18;102780.69;5016339;28;45717;-78
2021/12/16 00:38:02;;;;;;;;;37.25;28.50;;;;;11.27;72.24;102798.03;4996694;28;45741;-79
2021/12/16 00:40:29;;;;;;;;;32.00;28.50;;;;;11.28;72.14;102788.41;5013470;28;45943;-80
2021/12/16 00:42:59;;;;;;;;;29.00;25.25;;;;;11.23;72.34;102785.06;5013140;28;46682;-80
2021/12/16 00:45:46;;;;;;;;;31.75;26.50;;;;;11.18;72.08;102777.38;5014944;28;46409;-80
2021/12/16 00:55:56;;;;;;;;;31.50;21.75;;;;;11.24;72.17;102773.66;5077602;28;46178;-78
2021/12/16 00:58:39;;;;;;;;;30.00;28.75;;;;;11.23;72.31;102783.31;5109748;27;45723;-79
2021/12/16 01:01:38;;;;;;;;;27.75;26.75;;;;;11.24;72.18;102774.53;5077798;28;45695;-81
2021/12/16 01:34:39;;;;;;;;;31.75;27.25;;;;;11.29;72.35;102790.94;5076740;28;45807;-79
2021/12/16 01:50:48;;;;;;;;;30.00;26.00;;;;;11.25;71.98;102778.00;5075955;28;45942;-82
2021/12/16 01:53:50;;;;;;;;;27.50;26.00;;;;;11.10;72.13;102762.88;5075802;28;45776;-78
2021/12/16 01:56:40;;;;;;;;;37.25;27.50;;;;;11.25;72.03;102775.38;5075881;27;46028;-79
2021/12/16 01:58:52;;;;;;;;;28.25;27.00;;;;;11.31;72.04;102790.88;5076913;27;46714;-79
2021/12/16 02:01:30;;;;;;;;;27.00;25.25;;;;;11.12;71.81;102761.88;5080568;28;45608;-80
2021/12/16 02:04:26;;;;;;;;;29.75;25.75;;;;;11.33;71.96;102794.31;5079453;28;45648;-82
2021/12/16 02:09:31;;;;;;;;;32.25;24.50;;;;;11.35;71.83;102795.09;5075748;28;45616;-77
2021/12/16 02:12:14;;;;;;;;;31.25;24.50;;;;;11.36;71.83;102796.81;5076383;28;45932;-79
2021/12/16 02:39:33;;;;;;;;;25.00;22.00;;;;;11.37;71.86;102790.66;5075345;28;45772;-81
2021/12/16 02:42:12;;;;;;;;;22.00;19.00;;;;;11.40;71.70;102800.16;5074988;28;45596;-82
2021/12/16 02:50:06;;;;;;;;;23.50;20.25;;;;;11.40;71.81;102794.91;5075087;28;45709;-78
2021/12/16 02:55:55;;;;;;;;;20.25;16.00;;;;;11.43;71.58;102797.44;5073735;28;46084;-80
2021/12/16 02:58:21;;;;;;;;;23.50;21.25;;;;;11.44;71.63;102801.78;5074800;28;45804;-79
2021/12/16 03:00:56;;;;;;;;;21.75;19.00;;;;;11.47;71.56;102797.25;5075126;28;45606;-80
2021/12/16 03:03:21;;;;;;;;;23.50;20.75;;;;;11.38;71.53;102776.63;5074552;28;46952;-80
2021/12/16 03:05:47;;;;;;;;;25.00;21.75;;;;;11.49;71.69;102792.81;5073557;28;45670;-80
2021/12/16 03:14:48;;;;;;;;;31.75;25.75;;;;;11.47;71.32;102799.00;5011406;28;45642;-83
2021/12/16 03:17:25;;;;;;;;;28.50;24.50;;;;;11.37;71.69;102780.16;5011899;28;46112;-81
2021/12/16 03:20:56;;;;;;;;;32.50;27.00;;;;;11.41;71.59;102794.00;4995032;28;46221;-79
2021/12/16 03:23:07;;;;;;;;;29.25;25.75;;;;;11.43;71.68;102800.91;5003557;28;45960;-80
2021/12/16 03:25:57;;;;;;;;;24.25;22.00;;;;;11.43;71.76;102798.28;5011660;28;46770;-79
2021/12/16 03:31:30;;;;;;;;;33.50;29.00;;;;;11.39;71.71;102794.06;5013032;28;45690;-81
2021/12/16 03:34:43;;;;;;;;;40.75;36.00;;;;;11.43;71.68;102802.69;5013502;28;46027;-79
2021/12/16 03:40:12;;;;;;;;;48.25;40.50;;;;;11.39;71.90;102801.94;5012212;28;46288;-82
2021/12/16 03:42:40;;;;;;;;;46.00;39.50;;;;;11.38;71.97;102802.00;4994940;28;46023;-78
2021/12/16 03:48:30;;;;;;;;;43.00;38.50;;;;;11.35;72.04;102801.19;5075057;28;46417;-81
2021/12/16 03:50:56;;;;;;;;;49.75;42.25;;;;;11.35;72.07;102802.97;5076179;28;46291;-81
2021/12/16 03:56:44;;;;;;;;;53.75;44.50;;;;;11.31;72.16;102804.88;5065580;28;45713;-81
2021/12/16 03:59:11;;;;;;;;;60.00;45.50;;;;;11.28;72.52;102794.47;5074184;28;45672;-83
2021/12/16 04:01:37;;;;;;;;;51.50;43.00;;;;;11.30;72.19;102802.28;5074001;28;46598;-82
2021/12/16 04:04:03;;;;;;;;;54.25;44.25;;;;;11.29;72.12;102803.19;5074231;28;45645;-81
2021/12/16 04:06:31;;;;;;;;;50.50;43.00;;;;;11.29;72.28;102804.06;5074113;28;45743;-82
2021/12/16 04:08:57;;;;;;;;;51.00;43.75;;;;;11.27;72.36;102800.66;5074484;28;45629;-79
2021/12/16 04:11:32;;;;;;;;;50.75;41.75;;;;;11.27;72.35;102803.28;5074259;28;45634;-80
2021/12/16 04:13:59;;;;;;;;;59.50;49.00;;;;;11.23;72.30;102790.31;5074402;28;45564;-81
2021/12/16 04:16:46;;;;;;;;;60.75;47.75;;;;;11.29;72.17;102806.69;5074677;28;45784;-81
2021/12/16 04:19:16;;;;;;;;;65.75;50.25;;;;;11.31;72.27;102804.00;5077245;28;46509;-78
2021/12/16 04:21:54;;;;;;;;;68.25;51.50;;;;;11.30;72.27;102818.91;5077620;28;46146;-78
2021/12/16 04:24:21;;;;;;;;;60.75;48.25;;;;;11.28;72.36;102804.16;5077488;28;45904;-76
2021/12/16 04:26:49;;;;;;;;;57.75;46.75;;;;;11.21;72.34;102802.66;5076864;28;45749;-77
2021/12/16 04:29:17;;;;;;;;;60.00;44.50;;;;;11.28;72.45;102809.38;5076762;28;46588;-77
2021/12/16 04:31:43;;;;;;;;;59.75;47.00;;;;;11.26;72.48;102800.72;5076444;28;47188;-78
2021/12/16 04:34:09;;;;;;;;;56.00;44.75;;;;;11.25;72.47;102807.72;5076565;28;45754;-78
2021/12/16 04:36:35;;;;;;;;;53.00;44.25;;;;;11.16;72.30;102796.75;5076566;28;45564;-78
2021/12/16 04:42:25;;;;;;;;;49.50;41.25;;;;;11.27;72.36;102829.53;5076515;28;45619;-79
2021/12/16 04:44:50;;;;;;;;;48.75;40.75;;;;;11.22;72.42;102820.97;5076501;28;45590;-82
2021/12/16 04:47:17;;;;;;;;;44.00;38.50;;;;;11.19;72.54;102807.97;5076055;28;45954;-78
2021/12/16 04:49:42;;;;;;;;;52.75;42.50;;;;;11.25;72.37;102826.09;5076733;28;45711;-80
2021/12/16 04:52:12;;;;;;;;;50.50;41.25;;;;;11.29;72.41;102821.56;5076555;27;46459;-80
2021/12/16 04:54:38;;;;;;;;;49.25;40.50;;;;;11.29;72.56;102829.44;5075109;28;46016;-81
2021/12/16 04:57:05;;;;;;;;;55.25;43.00;;;;;11.29;72.42;102832.06;5076553;28;45702;-80
2021/12/16 04:59:32;;;;;;;;;49.50;40.50;;;;;11.24;72.55;102815.66;5076545;28;46557;-83
2021/12/16 05:02:02;;;;;;;;;47.75;39.75;;;;;11.31;72.46;102832.88;5078663;28;46176;-81
2021/12/16 05:04:28;;;;;;;;;51.25;42.00;;;;;11.32;72.52;102834.59;5080589;28;45795;-84
2021/12/16 05:06:54;;;;;;;;;45.00;38.00;;;;;11.24;72.65;102813.88;5080800;28;45536;-79
2021/12/16 05:12:53;;;;;;;;;46.00;39.50;;;;;11.35;72.50;102823.97;5076010;28;45549;-79
2021/12/16 05:15:27;;;;;;;;;48.25;38.25;;;;;11.41;72.61;102831.59;5076089;28;45871;-81
2021/12/16 05:17:55;;;;;;;;;47.75;38.50;;;;;11.40;72.41;102835.13;5076778;28;45569;-81
2021/12/16 05:20:33;;;;;;;;;43.00;35.00;;;;;11.43;72.51;102834.19;5077164;28;45775;-78
2021/12/16 05:28:17;;;;;;;;;32.75;30.25;;;;;11.51;72.37;102829.47;5075339;28;45794;-80
2021/12/16 05:30:44;;;;;;;;;47.75;39.00;;;;;11.52;72.54;102831.19;5076403;28;46483;-80
2021/12/16 05:33:10;;;;;;;;;51.00;39.75;;;;;11.48;72.48;102830.47;5075995;28;46214;-78
2021/12/16 05:35:36;;;;;;;;;47.25;39.75;;;;;11.49;72.51;102834.81;5074336;28;45745;-80
2021/12/16 05:38:03;;;;;;;;;48.50;38.75;;;;;11.42;72.54;102828.06;5075650;28;45614;-79
2021/12/16 05:40:29;;;;;;;;;51.00;40.75;;;;;11.48;72.55;102840.09;5075806;28;45503;-77
2021/12/16 05:42:58;;;;;;;;;47.25;38.25;;;;;11.45;72.67;102835.81;5075855;28;46144;-79
2021/12/16 05:45:25;;;;;;;;;53.00;41.00;;;;;11.49;72.51;102845.31;5075879;28;45639;-81
2021/12/16 05:47:52;;;;;;;;;52.50;42.75;;;;;11.35;72.52;102830.06;5076269;28;45560;-81
2021/12/16 05:50:18;;;;;;;;;50.50;42.25;;;;;11.46;72.52;102858.53;5076376;28;46607;-78
2021/12/16 05:52:43;;;;;;;;;42.25;35.50;;;;;11.48;72.54;102847.97;5075907;28;46091;-81
2021/12/16 05:55:11;;;;;;;;;46.50;40.00;;;;;11.46;72.43;102853.28;5075962;28;45648;-84
2021/12/16 05:57:39;;;;;;;;;49.75;39.25;;;;;11.46;72.54;102862.91;5075089;27;45869;-83
2021/12/16 06:00:09;;;;;;;;;45.50;38.50;;;;;11.10;72.71;102799.59;5109038;27;47120;-85
2021/12/16 06:02:35;;;;;;;;;52.00;40.25;;;;;11.22;72.52;102823.59;5076455;28;46161;-80
2021/12/16 06:05:00;;;;;;;;;54.25;40.75;;;;;11.44;72.64;102857.75;5108692;27;45981;-83
2021/12/16 06:07:26;;;;;;;;;44.50;38.75;;;;;11.49;72.58;102873.31;5076030;28;45749;-82
2021/12/16 06:13:13;;;;;;;;;18.75;15.50;;;;;11.47;72.45;102862.88;5075479;28;46061;-82
2021/12/16 06:26:33;;;;;;;;;39.25;35.75;;;;;11.53;72.49;102870.50;5075724;28;45733;-80
2021/12/16 06:29:00;;;;;;;;;38.25;35.25;;;;;11.49;72.48;102870.69;5077184;28;45606;-78
2021/12/16 06:31:25;;;;;;;;;40.00;35.50;;;;;11.52;72.44;102874.03;5079332;28;46413;-80
2021/12/16 06:33:52;;;;;;;;;38.75;34.75;;;;;11.46;72.19;102866.41;5078930;28;45546;-77
2021/12/16 06:36:18;;;;;;;;;39.50;33.25;;;;;11.53;72.47;102874.91;5076571;28;45637;-80
2021/12/16 06:38:43;;;;;;;;;41.00;36.50;;;;;11.49;72.37;102865.44;5076753;28;46127;-77
2021/12/16 06:41:10;;;;;;;;;43.25;38.00;;;;;11.55;72.41;102870.47;5075771;27;45680;-80
2021/12/16 06:43:38;;;;;;;;;39.75;35.25;;;;;11.50;72.43;102860.09;5075925;28;45580;-79
2021/12/16 06:46:08;;;;;;;;;45.25;36.50;;;;;11.56;72.41;102870.38;5074729;28;45604;-78
2021/12/16 06:48:37;;;;;;;;;40.00;37.25;;;;;11.57;72.30;102874.72;5074307;28;45651;-78
2021/12/16 06:51:09;;;;;;;;;38.75;33.00;;;;;11.59;72.50;102880.78;5073884;28;46584;-81
2021/12/16 06:53:50;;;;;;;;;39.25;33.25;;;;;11.55;72.39;102875.72;5072921;28;48601;-81
2021/12/16 06:56:23;;;;;;;;;33.75;32.25;;;;;11.58;72.37;102878.19;5073386;28;45965;-80
2021/12/16 06:59:01;;;;;;;;;35.25;32.75;;;;;11.46;72.30;102850.66;5075757;28;45795;-80
2021/12/16 07:02:01;;;;;;;;;30.25;28.50;;;;;11.60;72.29;102885.13;5074525;28;45659;-82
2021/12/16 07:04:17;;;;;;;;;32.00;29.50;;;;;11.65;72.07;102888.41;5073999;27;46541;-82
2021/12/16 07:06:44;;;;;;;;;30.75;28.25;;;;;11.66;72.44;102892.72;5074865;28;45621;-78
2021/12/16 07:09:13;;;;;;;;;35.50;32.25;;;;;11.65;72.20;102893.66;5076044;28;45632;-81
2021/12/16 07:11:51;;;;;;;;;34.75;31.25;;;;;11.67;72.14;102893.59;5074245;28;45608;-79
2021/12/16 07:14:19;;;;;;;;;35.25;28.25;;;;;11.66;72.09;102895.34;5074424;28;46174;-79
2021/12/16 07:16:48;;;;;;;;;29.75;26.75;;;;;11.62;71.96;102893.78;5106818;27;45871;-78
2021/12/16 07:19:14;;;;;;;;;26.50;25.25;;;;;11.65;72.35;102898.06;5074582;28;45804;-81
2021/12/16 07:21:41;;;;;;;;;25.50;24.75;;;;;11.65;72.23;102893.66;5074094;27;45572;-80
2021/12/16 07:24:10;;;;;;;;;31.25;26.25;;;;;11.67;72.03;102902.31;5075051;28;46395;-77
2021/12/16 07:26:36;;;;;;;;;27.50;23.25;;;;;11.66;72.08;102895.34;5075546;28;46541;-77
2021/12/16 07:29:04;;;;;;;;;35.25;28.00;;;;;11.65;72.08;102879.69;5074893;28;45524;-78
2021/12/16 07:31:30;;;;;;;;;32.00;29.25;;;;;11.66;72.01;102889.28;5074927;27;46469;-79
2021/12/16 07:33:57;;;;;;;;;29.00;26.25;;;;;11.70;72.04;102898.75;5074303;28;46353;-82
2021/12/16 07:36:24;;;;;;;;;32.25;29.75;;;;;11.70;71.93;102893.47;5074453;28;45607;-79
2021/12/16 07:38:50;;;;;;;;;30.75;28.00;;;;;11.74;71.88;102908.22;5074149;28;45624;-80
2021/12/16 07:41:20;;;;;;;;;34.50;27.00;;;;;11.72;72.01;102905.63;5106712;27;47607;-82
2021/12/16 07:44:09;;;;;;;;;33.25;29.50;;;;;11.76;71.94;102901.16;5073332;28;46349;-81
2021/12/16 07:46:57;;;;;;;;;29.50;27.25;;;;;11.76;71.86;102895.91;5074418;28;45644;-83
2021/12/16 07:49:26;;;;;;;;;28.25;25.50;;;;;11.77;71.94;102908.97;5074047;28;45788;-78
2021/12/16 07:51:53;;;;;;;;;25.00;22.00;;;;;11.77;71.83;102903.69;5073369;28;47840;-82
2021/12/16 07:54:21;;;;;;;;;28.25;25.00;;;;;11.77;71.64;102901.06;5077797;28;46681;-81
2021/12/16 07:56:48;;;;;;;;;31.50;26.75;;;;;11.69;71.86;102890.00;5077800;28;45549;-80
2021/12/16 07:59:13;;;;;;;;;34.50;29.75;;;;;11.74;71.89;102897.72;5077453;28;45629;-80
2021/12/16 08:01:42;;;;;;;;;29.50;25.75;;;;;11.80;71.53;102904.50;5077689;28;46348;-81
2021/12/16 08:04:17;;;;;;;;;30.75;24.25;;;;;11.75;71.80;102895.06;5078155;28;47203;-83
2021/12/16 08:06:43;;;;;;;;;31.25;27.25;;;;;11.82;71.84;102921.06;5081338;28;45767;-82
2021/12/16 08:09:10;;;;;;;;;25.75;24.25;;;;;11.81;72.01;102916.72;5081241;28;45969;-84
2021/12/16 08:11:38;;;;;;;;;33.50;30.50;;;;;11.81;71.87;102917.59;5081727;28;46434;-80
2021/12/16 08:14:05;;;;;;;;;32.50;29.75;;;;;11.84;71.87;102917.47;5079802;28;47349;-81
2021/12/16 08:16:31;;;;;;;;;31.50;28.25;;;;;11.83;71.85;102913.13;5077396;28;45699;-83
2021/12/16 08:18:57;;;;;;;;;28.25;27.50;;;;;11.85;71.81;102916.53;5077929;28;45756;-81
2021/12/16 08:21:27;;;;;;;;;26.25;24.25;;;;;11.92;71.64;102928.53;5077556;28;46509;-80
2021/12/16 08:23:59;;;;;;;;;34.50;29.25;;;;;11.94;71.64;102929.31;5077564;27;46494;-80
2021/12/16 08:26:25;;;;;;;;;33.25;27.75;;;;;11.94;71.45;102926.69;5077228;28;45920;-81
2021/12/16 08:28:51;;;;;;;;;30.00;27.50;;;;;11.95;71.46;102924.91;5076148;28;45705;-78
2021/12/16 08:31:16;;;;;;;;;29.00;27.25;;;;;11.99;71.61;102927.34;5077417;28;46387;-83
2021/12/16 08:33:42;;;;;;;;;29.00;24.00;;;;;12.00;71.50;102925.59;5077676;28;45869;-80
2021/12/16 08:36:08;;;;;;;;;25.75;23.00;;;;;12.01;71.45;102929.94;5076994;28;45559;-76
2021/12/16 08:38:36;;;;;;;;;27.00;22.75;;;;;12.02;71.51;102929.88;5080118;28;45490;-78
2021/12/16 08:41:12;;;;;;;;;24.00;21.75;;;;;12.03;71.22;102922.84;5078550;28;45729;-80
2021/12/16 08:43:44;;;;;;;;;24.00;22.00;;;;;12.05;71.49;102928.88;5077926;28;46451;-78
2021/12/16 08:46:12;;;;;;;;;23.75;22.25;;;;;12.05;71.41;102936.75;5076482;28;45671;-78
2021/12/16 08:48:38;;;;;;;;;23.50;22.00;;;;;12.07;71.42;102933.19;5077112;28;45935;-77
2021/12/16 08:51:04;;;;;;;;;27.25;23.25;;;;;12.07;71.11;102934.94;5076849;28;45669;-82
2021/12/16 08:53:29;;;;;;;;;23.00;22.75;;;;;12.03;71.13;102931.59;5076900;28;46121;-78
2021/12/16 08:59:58;;;;;;;;;35.75;26.00;;;;;12.12;70.83;102941.72;5072766;28;46137;-83
2021/12/16 09:02:25;;;;;;;;;24.75;23.50;;;;;12.11;71.06;102945.25;5075159;28;47334;-80
2021/12/16 09:04:51;;;;;;;;;23.25;22.50;;;;;12.07;70.83;102930.53;5108911;27;46124;-79
2021/12/16 09:07:17;;;;;;;;;24.00;23.25;;;;;12.12;70.85;102943.50;5108390;27;45808;-77
2021/12/16 09:09:45;;;;;;;;;27.75;24.00;;;;;12.16;71.06;102942.44;5074857;28;45557;-77
2021/12/16 09:12:37;;;;;;;;;24.50;22.75;;;;;12.27;70.96;102950.75;5075282;28;46499;-77
2021/12/16 09:15:07;;;;;;;;;29.00;28.00;;;;;12.33;71.06;102957.53;5075044;28;46398;-79
2021/12/16 09:17:33;;;;;;;;;22.75;22.00;;;;;12.33;70.72;102952.28;5075192;28;45707;-77
2021/12/16 09:19:58;;;;;;;;;27.50;25.00;;;;;12.39;70.52;102952.88;5075233;28;45819;-78
2021/12/16 09:22:26;;;;;;;;;27.50;25.50;;;;;12.39;70.66;102950.25;5075388;28;45855;-77
2021/12/16 09:24:54;;;;;;;;;26.50;24.00;;;;;12.50;70.71;102961.19;5075382;28;45659;-77
2021/12/16 09:27:20;;;;;;;;;21.00;18.00;;;;;12.52;70.59;102969.03;5075327;28;45498;-77
2021/12/16 09:29:46;;;;;;;;;23.25;21.50;;;;;12.55;70.60;102963.63;5075434;28;45867;-78
2021/12/16 09:32:12;;;;;;;;;24.00;22.50;;;;;12.58;70.33;102966.13;5075524;28;45835;-79
2021/12/16 09:34:40;;;;;;;;;23.25;20.00;;;;;12.61;70.35;102973.91;5075435;28;46045;-78
2021/12/16 09:37:06;;;;;;;;;22.75;20.00;;;;;12.63;70.26;102976.47;5075255;27;46035;-78
2021/12/16 09:39:32;;;;;;;;;23.25;20.75;;;;;12.63;69.96;102965.94;5076391;28;45789;-79
2021/12/16 09:41:59;;;;;;;;;27.25;24.00;;;;;12.58;69.99;102956.47;5076837;28;45653;-79
2021/12/16 09:44:27;;;;;;;;;24.50;21.75;;;;;12.71;69.91;102985.75;5076962;28;47006;-78
2021/12/16 09:46:55;;;;;;;;;22.50;19.50;;;;;12.71;70.00;102983.09;5076039;28;45868;-79
2021/12/16 09:49:22;;;;;;;;;19.75;17.50;;;;;12.75;69.86;102984.69;5075705;28;45803;-79
2021/12/16 09:51:51;;;;;;;;;23.75;21.50;;;;;12.74;69.70;102982.97;5075489;28;45707;-79
2021/12/16 09:54:21;;;;;;;;;25.00;19.25;;;;;12.77;69.81;102990.75;5075092;28;45799;-80
2021/12/16 09:56:48;;;;;;;;;24.25;22.00;;;;;12.70;69.77;102975.28;5075153;28;45772;-77
2021/12/16 09:59:15;;;;;;;;;27.75;25.25;;;;;12.81;69.40;102994.09;5074847;28;45573;-78
2021/12/16 10:01:43;;;;;;;;;24.00;21.00;;;;;12.80;69.52;103001.13;5075369;28;45697;-78
2021/12/16 10:04:13;;;;;;;;;25.25;23.75;;;;;12.75;69.72;102992.56;5075207;28;46175;-77
2021/12/16 10:06:43;;;;;;;;;24.50;24.00;;;;;12.77;69.18;102988.13;5073193;28;45751;-77
2021/12/16 10:09:10;;;;;;;;;25.50;21.50;;;;;12.75;69.26;102994.34;5075062;28;45621;-76
2021/12/16 10:11:38;;;;;;;;;27.75;23.75;;;;;12.80;69.36;103000.25;5074576;28;46869;-78
2021/12/16 10:19:22;;;;;;;;;26.25;24.75;;;;;12.60;69.04;102970.41;5074484;28;45610;-79
2021/12/16 10:21:48;;;;;;;;;28.00;26.00;;;;;12.77;69.08;102997.78;5074564;28;47124;-77
2021/12/16 10:24:29;;;;;;;;;24.75;24.00;;;;;12.72;68.72;103000.59;5074682;28;45685;-77
2021/12/16 10:27:09;;;;;;;;;25.00;22.25;;;;;12.77;69.04;103000.41;5074661;28;45798;-78
2021/12/16 10:29:39;;;;;;;;;27.75;26.00;;;;;12.71;68.67;102988.38;5075809;28;45732;-79
2021/12/16 10:32:06;;;;;;;;;29.00;25.25;;;;;12.76;68.52;102993.44;5075009;28;46522;-78
2021/12/16 10:34:31;;;;;;;;;28.25;24.25;;;;;12.79;68.44;102998.59;5075381;28;45724;-78
2021/12/16 10:36:58;;;;;;;;;28.75;24.75;;;;;12.79;68.70;102995.94;5075938;28;45723;-78
2021/12/16 10:39:28;;;;;;;;;25.00;24.50;;;;;12.79;68.74;102993.31;5075765;28;45598;-78
2021/12/16 10:42:00;;;;;;;;;26.25;22.00;;;;;12.82;68.34;102998.44;5076042;28;46420;-79
2021/12/16 10:44:33;;;;;;;;;23.75;21.00;;;;;12.84;68.60;103001.88;5075160;28;46233;-78
2021/12/16 10:47:13;;;;;;;;;26.75;23.25;;;;;12.84;68.34;103000.09;5075182;28;45959;-79
2021/12/16 10:49:49;;;;;;;;;25.25;23.75;;;;;12.84;68.31;102994.84;5075424;28;45822;-80
2021/12/16 10:52:19;;;;;;;;;22.75;21.50;;;;;12.78;68.14;102992.47;5073902;28;46398;-79
2021/12/16 10:54:48;;;;;;;;;23.75;20.00;;;;;12.83;68.04;102990.50;5074974;28;46134;-78
2021/12/16 10:57:25;;;;;;;;;25.00;23.75;;;;;12.88;67.87;102995.56;5073827;28;45879;-77
2021/12/16 10:59:57;;;;;;;;;24.75;23.00;;;;;12.90;67.85;102993.72;5074492;28;45636;-77
2021/12/16 11:02:29;;;;;;;;;25.75;22.25;;;;;12.92;67.89;103007.66;5076944;28;45612;-80
2021/12/16 11:04:55;;;;;;;;;31.25;24.50;;;;;12.93;67.71;102991.81;5078208;28;46146;-77
2021/12/16 11:07:30;;;;;;;;;27.50;25.75;;;;;12.95;68.04;102991.75;5075036;28;45737;-77
2021/12/16 11:10:14;;;;;;;;;24.25;23.25;;;;;12.94;67.96;102987.41;5075786;28;45910;-75
2021/12/16 11:12:50;;;;;;;;;23.75;22.25;;;;;12.94;67.62;103001.41;5074112;27;45595;-75
2021/12/16 11:15:28;;;;;;;;;24.25;22.75;;;;;12.95;67.72;102992.59;5073564;28;46526;-77
2021/12/16 11:17:56;;;;;;;;;26.50;25.00;;;;;12.96;67.43;102998.69;5074152;28;45971;-83
2021/12/16 11:20:24;;;;;;;;;29.00;27.25;;;;;12.98;67.89;102992.47;5074656;28;45807;-80
2021/12/16 11:22:55;;;;;;;;;25.00;23.50;;;;;12.89;67.57;102979.72;5077377;28;45769;-83
2021/12/16 11:25:35;;;;;;;;;29.00;26.00;;;;;13.03;67.65;102982.59;5074730;28;47088;-78
2021/12/16 11:28:12;;;;;;;;;30.75;29.00;;;;;13.09;67.79;102996.41;5075092;28;45606;-82
2021/12/16 11:31:00;;;;;;;;;23.75;22.75;;;;;13.12;67.50;102997.16;5074669;28;45684;-79
2021/12/16 11:33:40;;;;;;;;;27.50;20.75;;;;;13.04;67.74;102979.03;5073538;28;46001;-82
2021/12/16 11:36:13;;;;;;;;;23.00;22.00;;;;;13.15;67.58;102996.19;5074418;28;46001;-84
2021/12/16 11:38:51;;;;;;;;;23.00;19.00;;;;;13.13;67.06;102987.47;5074480;28;45546;-82
2021/12/16 11:41:17;;;;;;;;;21.50;19.75;;;;;13.16;67.28;102984.72;5075283;28;45676;-83
2021/12/16 11:43:47;;;;;;;;;23.50;22.75;;;;;13.18;66.93;102988.13;5074013;28;46777;-84
2021/12/16 11:46:23;;;;;;;;;23.00;20.75;;;;;13.18;66.90;102991.63;5073918;28;45749;-76
2021/12/16 11:48:52;;;;;;;;;24.25;23.00;;;;;13.16;66.90;102974.19;5074305;28;45668;-87
2021/12/16 11:51:21;;;;;;;;;22.50;20.50;;;;;13.22;67.17;102985.31;5072892;28;45897;-83
2021/12/16 11:53:51;;;;;;;;;28.00;26.00;;;;;13.26;67.09;102989.53;5107804;27;46544;-84
2021/12/16 11:56:18;;;;;;;;;28.50;23.50;;;;;13.28;66.89;102987.66;5072908;28;47599;-86
2021/12/16 11:58:45;;;;;;;;;26.25;21.75;;;;;13.30;67.23;102982.34;5073477;28;45861;-78
2021/12/16 12:01:17;;;;;;;;;27.00;26.00;;;;;13.25;67.07;102971.16;5073728;28;45766;-86
2021/12/16 12:03:43;;;;;;;;;25.75;25.25;;;;;13.32;67.11;102986.63;5075488;28;46647;-83
2021/12/16 12:06:19;;;;;;;;;29.25;26.25;;;;;13.32;66.98;102983.13;5076677;27;45798;-79
2021/12/16 12:08:47;;;;;;;;;25.00;23.25;;;;;13.33;66.69;102980.41;5081148;28;45603;-78
2021/12/16 12:11:21;;;;;;;;;26.25;22.75;;;;;13.19;66.70;102958.25;5105955;27;45739;-77
2021/12/16 12:13:51;;;;;;;;;34.00;25.00;;;;;13.36;66.60;102980.28;5072854;28;45700;-79
2021/12/16 12:16:23;;;;;;;;;29.00;26.75;;;;;13.38;66.99;102981.09;5073237;28;46383;-78
2021/12/16 12:19:14;;;;;;;;;27.00;24.25;;;;;13.26;66.91;102960.56;5072797;28;45638;-78
2021/12/16 12:21:58;;;;;;;;;34.00;27.75;;;;;13.39;66.42;102976.66;5073088;28;45796;-80
2021/12/16 12:24:33;;;;;;;;;27.25;22.25;;;;;13.37;66.31;102975.88;5072256;28;46774;-77
2021/12/16 12:27:10;;;;;;;;;28.00;25.00;;;;;13.35;66.43;102968.03;5079070;28;45612;-76
2021/12/16 12:29:42;;;;;;;;;26.25;23.75;;;;;13.30;66.17;102972.66;5080065;28;45731;-78
2021/12/16 12:32:26;;;;;;;;;32.50;28.00;;;;;13.30;66.19;102967.41;5076686;28;45786;-78
2021/12/16 12:34:54;;;;;;;;;28.25;24.75;;;;;13.31;66.42;102965.63;5073220;28;46484;-77
2021/12/16 12:37:22;;;;;;;;;30.25;26.25;;;;;13.31;66.21;102965.63;5080076;28;46205;-77
2021/12/16 12:39:52;;;;;;;;;24.00;21.50;;;;;13.33;66.29;102966.41;5081677;28;45532;-77
2021/12/16 12:42:18;;;;;;;;;27.00;27.00;;;;;13.31;66.21;102963.84;5084058;28;45673;-77
2021/12/16 12:44:44;;;;;;;;;27.75;23.25;;;;;13.36;66.38;102966.28;5080881;28;45638;-78
2021/12/16 12:47:15;;;;;;;;;27.25;25.75;;;;;13.37;66.35;102960.94;5077558;28;47336;-78
2021/12/16 12:49:41;;;;;;;;;26.75;24.00;;;;;13.39;66.37;102964.34;5077226;28;45494;-77
2021/12/16 12:52:14;;;;;;;;;32.00;30.00;;;;;13.39;66.45;102953.81;5076774;28;45869;-77
2021/12/16 12:54:42;;;;;;;;;29.25;26.25;;;;;13.42;66.02;102952.81;5075712;28;46414;-77
2021/12/16 12:57:30;;;;;;;;;32.00;28.75;;;;;13.40;66.51;102952.03;5076314;28;46540;-77
2021/12/16 12:59:56;;;;;;;;;28.00;25.25;;;;;13.44;66.11;102954.44;5075569;27;45721;-78
2021/12/16 13:02:33;;;;;;;;;29.25;27.50;;;;;13.45;66.15;102950.03;5075806;28;45611;-77
2021/12/16 13:05:04;;;;;;;;;27.00;24.75;;;;;13.36;66.26;102937.31;5075741;28;45540;-79
2021/12/16 13:07:32;;;;;;;;;32.25;27.25;;;;;13.49;66.23;102949.00;5074139;28;46324;-77
2021/12/16 13:16:12;;;;;;;;;25.00;23.50;;;;;13.48;66.05;102942.03;5107954;27;45715;-79
2021/12/16 13:24:26;;;;;;;;;27.50;21.75;;;;;13.38;66.01;102933.69;5075153;28;45796;-76
2021/12/16 13:30:26;;;;;;;;;18.50;17.25;;;;;13.38;65.71;102933.69;5075104;28;45988;-78
2021/12/16 13:33:24;;;;;;;;;25.00;21.25;;;;;13.39;65.89;102927.47;5075223;28;45751;-77
2021/12/16 13:36:05;;;;;;;;;21.00;18.75;;;;;13.39;66.06;102927.47;5075127;27;45593;-77
2021/12/16 13:38:43;;;;;;;;;22.25;21.00;;;;;13.37;65.52;102920.59;5073996;28;45860;-78
2021/12/16 13:41:14;;;;;;;;;20.25;18.50;;;;;13.40;65.38;102923.06;5074971;28;46400;-77
2021/12/16 13:44:04;;;;;;;;;24.00;21.50;;;;;13.41;65.54;102923.00;5075025;28;45817;-77
2021/12/16 13:47:03;;;;;;;;;20.00;19.00;;;;;13.40;65.72;102933.59;5075043;28;45585;-76
2021/12/16 13:58:31;;;;;;;;;23.25;20.25;;;;;13.35;65.22;102933.81;5075095;28;45713;-76
2021/12/16 14:07:23;;;;;;;;;22.50;20.00;;;;;13.33;65.46;102925.13;5074634;28;45787;-77
2021/12/16 14:10:04;;;;;;;;;22.00;18.25;;;;;13.38;65.22;102933.69;5076267;27;45925;-77
2021/12/16 14:45:26;;;;;;;;;23.00;20.25;;;;;13.39;64.92;102940.63;5031595;28;46064;-77
2021/12/16 14:48:08;;;;;;;;;21.50;19.75;;;;;13.24;65.00;102919.41;5017254;28;45761;-78
2021/12/16 14:50:34;;;;;;;;;25.00;20.50;;;;;13.34;64.89;102945.25;5030879;28;46408;-78
2021/12/16 14:53:19;;;;;;;;;30.25;23.50;;;;;13.34;65.07;102944.41;5031570;28;45847;-78
2021/12/16 14:55:45;;;;;;;;;28.25;22.00;;;;;13.33;64.93;102946.19;5041244;28;45593;-78
2021/12/16 14:58:11;;;;;;;;;25.50;23.50;;;;;13.32;64.77;102941.00;5073583;28;46763;-77
2021/12/16 15:00:47;;;;;;;;;29.50;24.75;;;;;13.32;65.21;102944.50;5073575;28;46073;-76
2021/12/16 15:03:16;;;;;;;;;25.75;23.75;;;;;13.29;65.25;102936.72;5073120;27;45987;-77
2021/12/16 15:05:49;;;;;;;;;24.00;21.50;;;;;13.29;65.38;102944.63;5074782;27;45835;-76
2021/12/16 15:08:27;;;;;;;;;27.75;25.00;;;;;13.28;64.94;102949.97;5074236;28;46293;-75
2021/12/16 15:10:56;;;;;;;;;30.50;25.00;;;;;13.27;64.77;102937.72;5073891;28;47098;-77
2021/12/16 15:13:34;;;;;;;;;24.50;23.25;;;;;13.26;64.97;102934.25;5073728;28;45616;-78
2021/12/16 15:42:53;;;;;;;;;27.50;25.25;;;;;13.17;64.86;102936.44;5075087;28;45944;-79
2021/12/16 15:45:40;;;;;;;;;29.25;26.25;;;;;13.16;64.90;102942.63;5073986;28;45557;-82